createdAt,value
2018-07-20T00:01:40.315Z,13.60
2018-07-20T00:04:09.009Z,9.40
2018-07-20T00:06:37.661Z,9.30
2018-07-20T00:09:08.277Z,13.30
2018-07-20T00:11:37.127Z,11.50
2018-07-20T00:14:05.907Z,9.37
2018-07-20T00:16:34.640Z,16.43
2018-07-20T00:19:03.360Z,11.63
2018-07-20T00:21:32.214Z,26.43
2018-07-20T00:24:00.995Z,16.50
2018-07-20T00:26:29.710Z,18.60
2018-07-20T00:28:58.361Z,11.47
2018-07-20T00:31:27.095Z,12.90
2018-07-20T00:33:56.783Z,19.27
2018-07-20T00:36:25.538Z,16.33
2018-07-20T00:38:54.282Z,15.70
2018-07-20T00:41:23.000Z,16.50
2018-07-20T00:43:51.680Z,12.13
2018-07-20T00:46:20.396Z,10.33
2018-07-20T00:48:49.187Z,14.87
2018-07-20T00:51:17.848Z,11.83
2018-07-20T00:53:46.609Z,15.43
2018-07-20T00:56:15.415Z,18.13
2018-07-20T00:58:44.286Z,12.53
2018-07-20T01:01:13.047Z,16.80
2018-07-20T01:03:41.820Z,20.10
2018-07-20T01:06:10.559Z,19.17
2018-07-20T01:08:39.290Z,14.27
2018-07-20T01:11:08.108Z,13.37
2018-07-20T01:13:36.965Z,16.53
2018-07-20T01:16:05.705Z,17.87
2018-07-20T01:18:35.529Z,13.57
2018-07-20T01:21:04.415Z,15.80
2018-07-20T01:23:33.080Z,15.03
2018-07-20T01:26:02.485Z,11.13
2018-07-20T01:28:31.178Z,16.83
2018-07-20T01:31:00.001Z,15.67
2018-07-20T01:33:28.774Z,11.13
2018-07-20T01:35:57.412Z,12.87
2018-07-20T01:38:26.125Z,17.80
2018-07-20T01:40:54.884Z,15.57
2018-07-20T01:43:23.533Z,22.10
2018-07-20T01:45:52.223Z,15.50
2018-07-20T01:48:21.053Z,23.17
2018-07-20T01:50:49.739Z,17.73
2018-07-20T01:53:18.413Z,19.90
2018-07-20T01:55:47.908Z,12.10
2018-07-20T01:58:16.633Z,14.43
2018-07-20T02:00:45.337Z,14.17
2018-07-20T02:03:14.064Z,13.43
2018-07-20T02:05:42.845Z,15.13
2018-07-20T02:08:11.555Z,16.93
2018-07-20T02:10:40.369Z,9.40
2018-07-20T02:13:09.161Z,16.13
2018-07-20T02:15:37.971Z,15.23
2018-07-20T02:18:06.946Z,17.00
2018-07-20T02:20:35.731Z,18.10
2018-07-20T02:23:04.580Z,17.70
2018-07-20T02:25:33.378Z,17.57
2018-07-20T02:28:02.045Z,35.40
2018-07-20T02:30:31.739Z,18.07
2018-07-20T02:33:00.505Z,19.23
2018-07-20T02:35:29.285Z,17.07
2018-07-20T02:37:58.077Z,16.67
2018-07-20T02:40:27.018Z,15.80
2018-07-20T02:42:55.967Z,13.67
2018-07-20T02:45:24.834Z,15.53
2018-07-20T02:47:53.597Z,15.23
2018-07-20T02:50:22.269Z,13.73
2018-07-20T02:52:51.050Z,19.43
2018-07-20T02:55:20.035Z,17.73
2018-07-20T02:57:48.797Z,17.07
2018-07-20T03:00:17.776Z,15.57
2018-07-20T03:02:46.507Z,18.93
2018-07-20T03:05:15.273Z,19.60
2018-07-20T03:07:44.013Z,14.57
2018-07-20T03:10:12.744Z,24.30
2018-07-20T03:12:41.455Z,15.57
2018-07-20T03:15:10.242Z,15.17
2018-07-20T03:17:38.963Z,22.47
2018-07-20T03:20:07.683Z,13.13
2018-07-20T03:22:36.387Z,25.43
2018-07-20T03:25:06.134Z,20.77
2018-07-20T03:27:34.813Z,16.23
2018-07-20T03:30:03.440Z,13.27
2018-07-20T03:32:32.150Z,15.87
2018-07-20T03:35:00.889Z,13.07
2018-07-20T03:37:29.501Z,15.67
2018-07-20T03:39:58.245Z,19.87
2018-07-20T03:42:27.026Z,14.70
2018-07-20T03:44:55.809Z,15.13
2018-07-20T03:47:24.478Z,16.43
2018-07-20T03:49:53.156Z,16.43
2018-07-20T03:52:21.790Z,13.43
2018-07-20T03:54:50.531Z,11.83
2018-07-20T03:57:19.303Z,25.43
2018-07-20T03:59:48.035Z,16.33
2018-07-20T04:02:16.646Z,16.20
2018-07-20T04:04:46.206Z,12.60
2018-07-20T04:07:15.629Z,13.70
2018-07-20T04:09:44.319Z,19.13
2018-07-20T04:12:12.975Z,10.00
2018-07-20T04:14:41.681Z,16.20
2018-07-20T04:17:10.487Z,10.63
2018-07-20T04:19:39.111Z,16.67
2018-07-20T04:22:07.787Z,13.20
2018-07-20T04:24:36.395Z,16.90
2018-07-20T04:27:05.096Z,15.73
2018-07-20T04:29:33.909Z,16.53
2018-07-20T04:32:02.665Z,18.33
2018-07-20T04:34:31.425Z,13.37
2018-07-20T04:37:00.167Z,16.57
2018-07-20T04:39:28.780Z,12.13
2018-07-20T04:41:57.624Z,19.03
2018-07-20T04:44:26.430Z,11.67
2018-07-20T04:46:55.232Z,14.67
2018-07-20T04:49:24.138Z,12.20
2018-07-20T04:51:52.786Z,13.80
2018-07-20T04:54:21.463Z,16.87
2018-07-20T04:56:51.969Z,14.73
2018-07-20T04:59:20.679Z,11.70
2018-07-20T05:01:50.528Z,11.73
2018-07-20T05:04:19.226Z,8.77
2018-07-20T05:06:47.868Z,11.93
2018-07-20T05:09:17.552Z,10.40
2018-07-20T05:11:46.345Z,11.90
2018-07-20T05:14:15.645Z,9.40
2018-07-20T05:16:44.391Z,11.50
2018-07-20T05:19:13.260Z,16.40
2018-07-20T05:21:41.988Z,13.33
2018-07-20T05:24:10.804Z,14.37
2018-07-20T05:26:39.450Z,15.73
2018-07-20T05:29:08.140Z,10.70
2018-07-20T05:31:36.966Z,16.00
2018-07-20T05:34:05.824Z,13.80
2018-07-20T05:36:34.633Z,14.87
2018-07-20T05:39:03.675Z,7.87
2018-07-20T05:41:32.404Z,17.43
2018-07-20T05:44:01.607Z,8.43
2018-07-20T05:46:30.413Z,11.27
2018-07-20T05:49:00.011Z,13.00
2018-07-20T05:51:28.775Z,8.07
2018-07-20T05:53:57.738Z,12.87
2018-07-20T05:56:26.428Z,8.53
2018-07-20T05:58:55.250Z,15.37
2018-07-20T06:01:24.052Z,10.57
2018-07-20T06:03:52.904Z,16.73
2018-07-20T06:06:21.597Z,15.07
2018-07-20T06:08:50.332Z,14.07
2018-07-20T06:11:19.103Z,8.20
2018-07-20T06:13:48.591Z,8.63
2018-07-20T06:16:18.166Z,10.53
2018-07-20T06:18:46.886Z,11.53
2018-07-20T06:21:15.653Z,8.00
2018-07-20T06:23:44.428Z,11.07
2018-07-20T06:26:13.153Z,12.67
2018-07-20T06:28:41.811Z,8.90
2018-07-20T06:31:10.565Z,11.90
2018-07-20T06:33:39.200Z,17.40
2018-07-20T06:36:07.922Z,14.63
2018-07-20T06:38:36.598Z,12.70
2018-07-20T06:41:05.663Z,9.70
2018-07-20T06:43:34.455Z,7.40
2018-07-20T06:46:03.060Z,8.77
2018-07-20T06:48:31.620Z,6.47
2018-07-20T06:51:00.196Z,14.87
2018-07-20T06:53:28.726Z,7.27
2018-07-20T06:55:57.419Z,8.60
2018-07-20T06:58:26.969Z,9.23
2018-07-20T07:00:55.758Z,8.07
2018-07-20T07:03:24.406Z,9.50
2018-07-20T07:05:53.056Z,14.43
2018-07-20T07:08:21.946Z,5.10
2018-07-20T07:10:50.837Z,8.37
2018-07-20T07:13:19.819Z,10.40
2018-07-20T07:15:48.557Z,7.50
2018-07-20T07:18:17.468Z,7.43
2018-07-20T07:20:46.242Z,5.60
2018-07-20T07:23:14.987Z,10.72
2018-07-20T07:25:43.806Z,15.93
2018-07-20T07:28:12.605Z,5.45
2018-07-20T07:30:41.349Z,6.15
2018-07-20T07:33:10.125Z,4.75
2018-07-20T07:35:38.876Z,5.95
2018-07-20T07:38:07.606Z,10.72
2018-07-20T07:40:36.412Z,10.15
2018-07-20T07:43:05.221Z,5.37
2018-07-20T07:45:34.204Z,10.15
2018-07-20T07:48:02.976Z,5.72
2018-07-20T07:50:31.783Z,13.95
2018-07-20T07:53:00.620Z,8.30
2018-07-20T07:55:29.442Z,8.83
2018-07-20T07:57:59.220Z,16.77
2018-07-20T08:00:27.937Z,6.67
2018-07-20T08:02:56.747Z,11.18
2018-07-20T08:05:25.650Z,6.00
2018-07-20T08:07:54.852Z,12.15
2018-07-20T08:10:23.542Z,10.58
2018-07-20T08:12:52.430Z,9.73
2018-07-20T08:15:21.270Z,9.90
2018-07-20T08:17:49.975Z,15.98
2018-07-20T08:20:18.708Z,8.45
2018-07-20T08:22:47.525Z,16.02
2018-07-20T08:25:16.416Z,9.63
2018-07-20T08:27:45.021Z,11.03
2018-07-20T08:30:13.936Z,13.05
2018-07-20T08:32:42.640Z,9.38
2018-07-20T08:35:11.452Z,14.13
2018-07-20T08:37:40.248Z,7.70
2018-07-20T08:40:09.007Z,9.55
2018-07-20T08:42:37.856Z,14.38
2018-07-20T08:45:06.884Z,12.03
2018-07-20T08:47:35.730Z,9.10
2018-07-20T08:50:04.930Z,6.20
2018-07-20T08:52:34.094Z,7.42
2018-07-20T08:55:02.855Z,11.93
2018-07-20T08:57:32.361Z,8.58
2018-07-20T09:00:01.334Z,11.73
2018-07-20T09:02:30.259Z,7.95
2018-07-20T09:04:58.973Z,11.85
2018-07-20T09:07:27.674Z,16.60
2018-07-20T09:09:56.628Z,14.50
2018-07-20T09:12:25.562Z,6.67
2018-07-20T09:14:54.320Z,9.48
2018-07-20T09:17:23.102Z,12.65
2018-07-20T09:19:51.758Z,12.37
2018-07-20T09:22:20.588Z,12.18
2018-07-20T09:24:49.419Z,13.68
2018-07-20T09:27:18.403Z,10.40
2018-07-20T09:29:47.853Z,4.45
2018-07-20T09:32:16.668Z,11.00
2018-07-20T09:34:45.557Z,8.53
2018-07-20T09:37:14.493Z,6.35
2018-07-20T09:39:43.215Z,10.00
2018-07-20T09:42:12.198Z,12.93
2018-07-20T09:44:41.015Z,15.23
2018-07-20T09:47:09.753Z,9.78
2018-07-20T09:49:38.472Z,9.23
2018-07-20T09:52:06.988Z,5.40
2018-07-20T09:54:35.614Z,6.45
2018-07-20T09:57:04.149Z,7.42
2018-07-20T09:59:32.813Z,6.75
2018-07-20T10:02:01.353Z,8.90
2018-07-20T10:04:29.935Z,8.65
2018-07-20T10:06:58.498Z,8.18
2018-07-20T10:09:27.028Z,5.42
2018-07-20T10:11:55.644Z,4.85
2018-07-20T10:14:24.296Z,6.25
2018-07-20T10:16:52.891Z,7.45
2018-07-20T10:19:21.505Z,7.08
2018-07-20T10:21:50.038Z,8.33
2018-07-20T10:24:18.607Z,12.73
2018-07-20T10:26:47.131Z,5.78
2018-07-20T10:29:15.706Z,3.87
2018-07-20T10:31:44.241Z,5.53
2018-07-20T10:34:12.817Z,8.00
2018-07-20T10:36:41.414Z,8.60
2018-07-20T10:39:10.699Z,7.27
2018-07-20T10:41:39.223Z,8.93
2018-07-20T10:44:07.826Z,5.40
2018-07-20T10:46:36.573Z,4.83
2018-07-20T10:49:05.435Z,5.60
2018-07-20T10:51:34.016Z,5.28
2018-07-20T10:54:02.580Z,7.58
2018-07-20T10:56:31.147Z,6.22
2018-07-20T10:58:59.662Z,5.58
2018-07-20T11:01:28.291Z,4.22
2018-07-20T11:03:56.776Z,7.05
2018-07-20T11:06:25.328Z,6.35
2018-07-20T11:08:53.875Z,5.87
2018-07-20T11:11:22.429Z,7.55
2018-07-20T11:13:51.002Z,2.92
2018-07-20T11:16:19.572Z,3.62
2018-07-20T11:18:48.119Z,8.23
2018-07-20T11:21:16.710Z,6.83
2018-07-20T11:23:45.242Z,8.70
2018-07-20T11:26:13.793Z,6.70
2018-07-20T11:28:42.428Z,8.83
2018-07-20T11:31:11.003Z,3.27
2018-07-20T11:33:39.534Z,10.00
2018-07-20T11:36:08.091Z,5.47
2018-07-20T11:38:36.629Z,5.10
2018-07-20T11:41:05.188Z,6.70
2018-07-20T11:43:33.755Z,4.25
2018-07-20T11:46:02.290Z,6.08
2018-07-20T11:48:30.877Z,6.92
2018-07-20T11:50:59.471Z,5.92
2018-07-20T11:53:28.041Z,12.05
2018-07-20T11:55:56.580Z,5.47
2018-07-20T11:58:25.155Z,5.45
2018-07-20T12:00:53.689Z,12.05
2018-07-20T12:03:22.244Z,6.30
2018-07-20T12:05:50.795Z,5.97
2018-07-20T12:08:19.366Z,10.07
2018-07-20T12:10:48.488Z,17.43
2018-07-20T12:13:17.054Z,11.23
2018-07-20T12:15:45.609Z,10.57
2018-07-20T12:18:14.284Z,9.43
2018-07-20T12:20:42.857Z,6.87
2018-07-20T12:23:11.420Z,3.40
2018-07-20T12:25:39.960Z,5.60
2018-07-20T12:28:08.574Z,3.67
2018-07-20T12:30:37.094Z,7.40
2018-07-20T12:33:05.663Z,3.30
2018-07-20T12:35:34.237Z,5.73
2018-07-20T12:38:02.794Z,5.33
2018-07-20T12:40:31.392Z,8.33
2018-07-20T12:42:59.936Z,3.53
2018-07-20T12:45:28.476Z,6.37
2018-07-20T12:47:57.039Z,8.10
2018-07-20T12:50:25.607Z,4.73
2018-07-20T12:52:54.262Z,14.77
2018-07-20T12:55:22.833Z,5.63
2018-07-20T12:57:51.367Z,9.27
2018-07-20T13:00:19.916Z,6.97
2018-07-20T13:02:48.475Z,6.63
2018-07-20T13:05:17.029Z,10.13
2018-07-20T13:07:45.559Z,9.17
2018-07-20T13:10:14.153Z,4.27
2018-07-20T13:12:42.681Z,9.77
2018-07-20T13:15:11.262Z,6.57
2018-07-20T13:17:39.808Z,6.80
2018-07-20T13:20:08.390Z,9.30
2018-07-20T13:22:36.961Z,5.43
2018-07-20T13:25:05.556Z,5.40
2018-07-20T13:27:34.092Z,3.93
2018-07-20T13:30:02.641Z,7.07
2018-07-20T13:32:31.226Z,5.40
2018-07-20T13:34:59.994Z,9.47
2018-07-20T13:37:28.568Z,5.83
2018-07-20T13:39:57.123Z,5.40
2018-07-20T13:42:25.737Z,10.53
2018-07-20T13:44:54.321Z,17.37
2018-07-20T13:47:22.877Z,7.43
2018-07-20T13:49:51.449Z,6.20
2018-07-20T13:52:20.028Z,5.47
2018-07-20T13:54:48.586Z,5.00
2018-07-20T13:57:17.215Z,6.67
2018-07-20T13:59:45.758Z,5.40
2018-07-20T14:02:14.315Z,6.03
2018-07-20T14:04:42.858Z,6.80
2018-07-20T14:07:12.127Z,10.33
2018-07-20T14:09:40.674Z,5.70
2018-07-20T14:12:09.277Z,7.20
2018-07-20T14:14:37.829Z,3.97
2018-07-20T14:17:06.482Z,6.97
2018-07-20T14:19:35.014Z,7.17
2018-07-20T14:22:03.595Z,6.13
2018-07-20T14:24:32.157Z,12.10
2018-07-20T14:27:00.713Z,10.03
2018-07-20T14:29:29.326Z,6.17
2018-07-20T14:31:57.893Z,3.63
2018-07-20T14:34:26.581Z,8.27
2018-07-20T14:36:55.116Z,7.83
2018-07-20T14:39:23.675Z,3.70
2018-07-20T14:41:52.203Z,4.20
2018-07-20T14:44:20.775Z,7.57
2018-07-20T14:46:49.389Z,7.27
2018-07-20T14:49:17.938Z,5.87
2018-07-20T14:51:46.469Z,6.60
2018-07-20T14:54:15.085Z,8.13
2018-07-20T14:56:43.625Z,7.63
2018-07-20T14:59:12.230Z,6.83
2018-07-20T15:01:40.785Z,8.47
2018-07-20T15:04:09.381Z,5.37
2018-07-20T15:06:37.991Z,4.20
2018-07-20T15:09:09.541Z,10.13
2018-07-20T15:11:38.994Z,5.13
2018-07-20T15:14:07.782Z,5.27
2018-07-20T15:16:36.505Z,6.83
2018-07-20T15:19:05.473Z,7.03
2018-07-20T15:21:34.301Z,7.37
2018-07-20T15:24:03.477Z,6.40
2018-07-20T15:26:32.498Z,4.37
2018-07-20T15:29:01.537Z,6.03
2018-07-20T15:31:30.454Z,6.07
2018-07-20T15:33:59.189Z,9.63
2018-07-20T15:36:28.012Z,6.13
2018-07-20T15:38:56.733Z,8.73
2018-07-20T15:41:25.461Z,5.87
2018-07-20T15:43:54.219Z,8.93
2018-07-20T15:46:24.049Z,6.03
2018-07-20T15:48:52.699Z,6.53
2018-07-20T15:51:31.577Z,5.70
2018-07-20T15:53:49.873Z,6.03
2018-07-20T15:56:19.146Z,7.97
2018-07-20T15:58:47.700Z,6.83
2018-07-20T16:01:16.274Z,10.33
2018-07-20T16:03:44.796Z,11.77
2018-07-20T16:06:13.407Z,6.70
2018-07-20T16:08:42.090Z,5.10
2018-07-20T16:11:10.644Z,6.30
2018-07-20T16:13:39.212Z,8.53
2018-07-20T16:16:07.771Z,6.80
2018-07-20T16:18:36.305Z,5.30
2018-07-20T16:21:04.872Z,8.37
2018-07-20T16:23:33.433Z,5.23
2018-07-20T16:26:02.054Z,5.70
2018-07-20T16:28:30.626Z,10.00
2018-07-20T16:30:59.160Z,11.10
2018-07-20T16:33:27.791Z,7.87
2018-07-20T16:35:56.341Z,6.50
2018-07-20T16:38:24.893Z,5.40
2018-07-20T16:40:53.484Z,6.13
2018-07-20T16:43:22.091Z,5.97
2018-07-20T16:45:50.663Z,5.20
2018-07-20T16:48:19.209Z,6.00
2018-07-20T16:50:47.745Z,5.47
2018-07-20T16:53:16.436Z,5.00
2018-07-20T16:55:44.973Z,6.43
2018-07-20T16:58:13.581Z,7.97
2018-07-20T17:00:42.068Z,10.63
2018-07-20T17:03:10.625Z,5.50
2018-07-20T17:05:39.182Z,10.10
2018-07-20T17:08:07.736Z,9.50
2018-07-20T17:10:36.289Z,8.43
2018-07-20T17:13:04.891Z,4.67
2018-07-20T17:15:33.687Z,6.27
2018-07-20T17:18:02.224Z,7.27
2018-07-20T17:20:30.802Z,6.17
2018-07-20T17:22:59.333Z,4.80
2018-07-20T17:25:27.955Z,9.37
2018-07-20T17:27:56.566Z,15.53
2018-07-20T17:30:25.118Z,7.37
2018-07-20T17:32:53.652Z,7.87
2018-07-20T17:35:22.230Z,5.07
2018-07-20T17:37:50.752Z,8.33
2018-07-20T17:40:19.337Z,12.43
2018-07-20T17:42:47.876Z,10.03
2018-07-20T17:45:16.514Z,8.77
2018-07-20T17:47:45.029Z,10.73
2018-07-20T17:50:13.553Z,9.33
2018-07-20T17:52:42.094Z,9.80
2018-07-20T17:55:10.636Z,7.77
2018-07-20T17:57:39.176Z,8.50
2018-07-20T18:00:07.802Z,7.70
2018-07-20T18:02:36.404Z,8.77
2018-07-20T18:05:05.169Z,10.00
2018-07-20T18:07:33.713Z,7.70
2018-07-20T18:10:02.227Z,8.10
2018-07-20T18:12:30.789Z,8.70
2018-07-20T18:14:59.298Z,6.03
2018-07-20T18:17:27.843Z,11.73
2018-07-20T18:19:56.377Z,11.73
2018-07-20T18:22:24.915Z,6.50
2018-07-20T18:24:53.477Z,8.33
2018-07-20T18:27:22.117Z,8.30
2018-07-20T18:29:50.575Z,10.67
2018-07-20T18:32:19.164Z,5.70
2018-07-20T18:34:47.735Z,5.50
2018-07-20T18:37:16.300Z,9.33
2018-07-20T18:39:44.834Z,8.53
2018-07-20T18:42:13.417Z,6.90
2018-07-20T18:44:41.960Z,6.60
2018-07-20T18:47:10.537Z,10.20
2018-07-20T18:49:39.361Z,5.17
2018-07-20T18:52:08.169Z,6.03
2018-07-20T18:54:36.813Z,7.60
2018-07-20T18:57:05.625Z,6.67
2018-07-20T18:59:34.483Z,10.23
2018-07-20T19:02:03.150Z,6.80
2018-07-20T19:04:31.806Z,6.83
2018-07-20T19:07:00.657Z,10.40
2018-07-20T19:09:29.485Z,7.53
2018-07-20T19:11:58.198Z,9.17
2018-07-20T19:14:26.882Z,8.67
2018-07-20T19:16:55.576Z,5.80
2018-07-20T19:19:24.444Z,7.27
2018-07-20T19:21:53.312Z,10.77
2018-07-20T19:24:22.026Z,11.10
2018-07-20T19:26:50.640Z,8.93
2018-07-20T19:29:19.465Z,12.93
2018-07-20T19:31:48.234Z,11.07
2018-07-20T19:34:16.909Z,16.00
2018-07-20T19:36:45.879Z,10.17
2018-07-20T19:39:14.721Z,16.20
2018-07-20T19:41:43.566Z,16.67
2018-07-20T19:44:12.300Z,16.30
2018-07-20T19:46:41.127Z,24.10
2018-07-20T19:49:09.976Z,16.47
2018-07-20T19:51:38.693Z,25.77
2018-07-20T19:54:07.488Z,16.00
2018-07-20T19:56:36.246Z,14.43
2018-07-20T19:59:05.240Z,22.17
2018-07-20T20:01:34.025Z,20.03
2018-07-20T20:04:02.796Z,13.30
2018-07-20T20:06:31.549Z,16.23
2018-07-20T20:09:00.384Z,16.93
2018-07-20T20:11:29.271Z,10.67
2018-07-20T20:13:58.172Z,11.67
2018-07-20T20:16:26.979Z,12.93
2018-07-20T20:18:55.733Z,9.47
2018-07-20T20:21:25.375Z,7.93
2018-07-20T20:23:54.850Z,11.27
2018-07-20T20:26:24.384Z,13.70
2018-07-20T20:28:53.215Z,13.07
2018-07-20T20:31:22.509Z,14.00
2018-07-20T20:33:51.327Z,19.13
2018-07-20T20:36:20.174Z,20.10
2018-07-20T20:38:49.097Z,14.70
2018-07-20T20:41:18.148Z,23.77
2018-07-20T20:43:46.860Z,24.27
2018-07-20T20:46:16.689Z,15.97
2018-07-20T20:48:45.406Z,17.53
2018-07-20T20:51:14.365Z,28.87
2018-07-20T20:53:43.278Z,16.13
2018-07-20T20:56:12.182Z,12.73
2018-07-20T20:58:41.314Z,14.17
2018-07-20T21:01:10.102Z,11.80
2018-07-20T21:03:38.966Z,24.40
2018-07-20T21:06:07.807Z,17.40
2018-07-20T21:08:36.643Z,13.13
2018-07-20T21:11:05.584Z,22.93
2018-07-20T21:13:34.400Z,17.10
2018-07-20T21:16:03.206Z,12.33
2018-07-20T21:18:32.097Z,16.83
2018-07-20T21:21:00.767Z,16.97
2018-07-20T21:23:29.612Z,14.07
2018-07-20T21:25:58.375Z,18.67
2018-07-20T21:28:27.117Z,12.00
2018-07-20T21:30:56.096Z,20.87
2018-07-20T21:33:25.043Z,10.07
2018-07-20T21:35:53.755Z,13.07
2018-07-20T21:38:23.646Z,17.87
2018-07-20T21:40:52.405Z,18.50
2018-07-20T21:43:21.127Z,11.40
2018-07-20T21:45:49.829Z,20.37
2018-07-20T21:48:18.509Z,15.57
2018-07-20T21:50:47.202Z,18.47
2018-07-20T21:53:16.238Z,15.87
2018-07-20T21:55:45.139Z,8.60
2018-07-20T21:58:14.049Z,13.80
2018-07-20T22:00:42.943Z,22.00
2018-07-20T22:03:11.686Z,13.80
2018-07-20T22:05:40.602Z,15.97
2018-07-20T22:08:10.084Z,14.93
2018-07-20T22:10:39.035Z,13.43
2018-07-20T22:13:07.792Z,8.53
2018-07-20T22:15:36.528Z,12.67
2018-07-20T22:18:04.144Z,11.87
2018-07-20T22:20:33.028Z,16.57
2018-07-20T22:23:01.807Z,21.63
2018-07-20T22:25:32.112Z,11.67
2018-07-20T22:28:00.879Z,11.23
2018-07-20T22:30:29.827Z,10.73
2018-07-20T22:32:58.639Z,16.30
2018-07-20T22:35:28.405Z,12.73
2018-07-20T22:37:57.096Z,10.40
2018-07-20T22:40:25.974Z,12.03
2018-07-20T22:42:54.728Z,9.97
2018-07-20T22:45:23.673Z,11.47
2018-07-20T22:47:52.701Z,10.07
2018-07-20T22:50:21.391Z,10.27
2018-07-20T22:52:49.067Z,7.20
2018-07-20T22:55:17.827Z,6.67
2018-07-20T22:57:46.680Z,9.67
2018-07-20T23:00:15.392Z,10.50
2018-07-20T23:02:44.237Z,8.00
2018-07-20T23:05:12.920Z,6.93
2018-07-20T23:07:41.632Z,6.27
2018-07-20T23:10:11.623Z,5.10
2018-07-20T23:12:40.336Z,5.50
2018-07-20T23:15:09.085Z,7.63
2018-07-20T23:17:37.760Z,4.87
2018-07-20T23:20:07.416Z,14.63
2018-07-20T23:22:36.215Z,6.60
2018-07-20T23:25:04.980Z,5.53
2018-07-20T23:27:33.601Z,5.80
2018-07-20T23:30:02.395Z,9.97
2018-07-20T23:32:31.206Z,10.90
2018-07-20T23:34:59.868Z,8.60
2018-07-20T23:37:28.514Z,6.93
2018-07-20T23:39:57.291Z,7.97
2018-07-20T23:42:26.968Z,7.67
2018-07-20T23:44:55.630Z,10.80
2018-07-20T23:47:24.387Z,8.40
2018-07-20T23:49:53.270Z,9.80
2018-07-20T23:52:21.928Z,7.27
2018-07-20T23:54:50.766Z,8.57
2018-07-20T23:57:19.463Z,8.90
2018-07-20T23:59:48.396Z,11.47
